# Tabular Observed and Forecast Hydrograph Information
#
# Location: Scott River - Fort Jones (FTJC1)
#
# File Generation Time: 05/08/2026 at 08:14 AM PDT
# Data Interval: 1 Hour
#
# Most Recent Date & Time of Maximum Observed: 05/05/2026 at 06:00 PM PDT
# Maximum Observed Stage: 5.67 Feet
# Maximum Observed Flow: 305 cfs
#
# Earliest Date & Time of Maximum Forecast: 05/08/2026 at 09:00 AM PDT
# Maximum Forecast Stage: 5.51 Feet
# Maximum Forecast Flow: 262 cfs
#
# OBSERVED
#
# Date & Time (Local) Stage (Feet) Flow (cfs) Trend Observed Status
# ---------------------------------------------------------------------------------
05/03/2026 08 AM PDT 5.63 294 Normal
05/03/2026 09 AM PDT 5.63 294 0 Normal
05/03/2026 10 AM PDT 5.64 296 + Normal
05/03/2026 11 AM PDT 5.64 296 0 Normal
05/03/2026 12 PM PDT 5.64 296 0 Normal
05/03/2026 01 PM PDT 5.65 299 + Normal
05/03/2026 02 PM PDT 5.65 299 0 Normal
05/03/2026 03 PM PDT 5.66 302 + Normal
05/03/2026 04 PM PDT 5.66 302 0 Normal
05/03/2026 05 PM PDT 5.66 302 0 Normal
05/03/2026 06 PM PDT 5.66 302 0 Normal
05/03/2026 07 PM PDT 5.66 302 0 Normal
05/03/2026 08 PM PDT 5.67 305 + Normal
05/03/2026 09 PM PDT 5.67 305 0 Normal
05/03/2026 10 PM PDT 5.67 305 0 Normal
05/03/2026 11 PM PDT 5.67 305 0 Normal
05/04/2026 12 AM PDT 5.67 305 0 Normal
05/04/2026 01 AM PDT 5.67 305 0 Normal
05/04/2026 02 AM PDT 5.67 305 0 Normal
05/04/2026 03 AM PDT 5.66 302 - Normal
05/04/2026 04 AM PDT 5.66 302 0 Normal
05/04/2026 05 AM PDT 5.66 302 0 Normal
05/04/2026 06 AM PDT 5.65 299 - Normal
05/04/2026 07 AM PDT 5.65 299 0 Normal
05/04/2026 08 AM PDT 5.65 299 0 Normal
05/04/2026 09 AM PDT 5.65 299 0 Normal
05/04/2026 10 AM PDT 5.65 299 0 Normal
05/04/2026 11 AM PDT 5.66 302 + Normal
05/04/2026 12 PM PDT 5.66 302 0 Normal
05/04/2026 01 PM PDT 5.66 302 0 Normal
05/04/2026 02 PM PDT 5.67 305 + Normal
05/04/2026 03 PM PDT 5.67 305 0 Normal
05/04/2026 04 PM PDT 5.67 305 0 Normal
05/04/2026 05 PM PDT 5.66 302 - Normal
05/04/2026 06 PM PDT 5.67 305 + Normal
05/04/2026 07 PM PDT 5.67 305 0 Normal
05/04/2026 08 PM PDT 5.67 305 0 Normal
05/04/2026 09 PM PDT 5.67 305 0 Normal
05/04/2026 10 PM PDT 5.67 305 0 Normal
05/04/2026 11 PM PDT 5.66 302 - Normal
05/05/2026 12 AM PDT 5.66 302 0 Normal
05/05/2026 01 AM PDT 5.66 302 0 Normal
05/05/2026 02 AM PDT 5.66 302 0 Normal
05/05/2026 03 AM PDT 5.66 302 0 Normal
05/05/2026 04 AM PDT 5.66 302 0 Normal
05/05/2026 05 AM PDT 5.65 299 - Normal
05/05/2026 06 AM PDT 5.65 299 0 Normal
05/05/2026 07 AM PDT 5.65 299 0 Normal
05/05/2026 08 AM PDT 5.66 302 + Normal
05/05/2026 09 AM PDT 5.66 302 0 Normal
05/05/2026 10 AM PDT 5.67 305 + Normal
05/05/2026 11 AM PDT 5.66 302 - Normal
05/05/2026 12 PM PDT 5.67 305 + Normal
05/05/2026 01 PM PDT 5.67 305 0 Normal
05/05/2026 02 PM PDT 5.67 305 0 Normal
05/05/2026 03 PM PDT 5.67 305 0 Normal
05/05/2026 04 PM PDT 5.67 305 0 Normal
05/05/2026 05 PM PDT 5.67 305 0 Normal
05/05/2026 06 PM PDT 5.67 305 0 Normal
05/05/2026 07 PM PDT 5.66 302 - Normal
05/05/2026 08 PM PDT 5.66 302 0 Normal
05/05/2026 09 PM PDT 5.66 302 0 Normal
05/05/2026 10 PM PDT 5.66 302 0 Normal
05/05/2026 11 PM PDT 5.66 302 0 Normal
05/06/2026 12 AM PDT 5.65 299 - Normal
05/06/2026 01 AM PDT 5.64 296 - Normal
05/06/2026 02 AM PDT 5.64 296 0 Normal
05/06/2026 03 AM PDT 5.63 294 - Normal
05/06/2026 04 AM PDT 5.63 294 0 Normal
05/06/2026 05 AM PDT 5.62 291 - Normal
05/06/2026 06 AM PDT 5.62 291 0 Normal
05/06/2026 07 AM PDT 5.61 288 - Normal
05/06/2026 08 AM PDT 5.61 288 0 Normal
05/06/2026 09 AM PDT 5.60 285 - Normal
05/06/2026 10 AM PDT 5.60 285 0 Normal
05/06/2026 11 AM PDT 5.60 285 0 Normal
05/06/2026 12 PM PDT 5.60 285 0 Normal
05/06/2026 01 PM PDT 5.60 285 0 Normal
05/06/2026 02 PM PDT 5.60 285 0 Normal
05/06/2026 03 PM PDT 5.60 285 0 Normal
05/06/2026 04 PM PDT 5.59 283 - Normal
05/06/2026 05 PM PDT 5.59 283 0 Normal
05/06/2026 06 PM PDT 5.59 283 0 Normal
05/06/2026 07 PM PDT 5.59 283 0 Normal
05/06/2026 08 PM PDT 5.59 283 0 Normal
05/06/2026 09 PM PDT 5.59 283 0 Normal
05/06/2026 10 PM PDT 5.59 283 0 Normal
05/06/2026 11 PM PDT 5.58 280 - Normal
05/07/2026 12 AM PDT 5.58 280 0 Normal
05/07/2026 01 AM PDT 5.58 280 0 Normal
05/07/2026 02 AM PDT 5.58 280 0 Normal
05/07/2026 03 AM PDT 5.58 280 0 Normal
05/07/2026 04 AM PDT 5.57 278 - Normal
05/07/2026 05 AM PDT 5.57 278 0 Normal
05/07/2026 06 AM PDT 5.57 278 0 Normal
05/07/2026 07 AM PDT 5.56 275 - Normal
05/07/2026 08 AM PDT 5.56 275 0 Normal
05/07/2026 09 AM PDT 5.55 272 - Normal
05/07/2026 10 AM PDT 5.55 272 0 Normal
05/07/2026 11 AM PDT 5.55 272 0 Normal
05/07/2026 12 PM PDT 5.55 272 0 Normal
05/07/2026 01 PM PDT 5.55 272 0 Normal
05/07/2026 02 PM PDT 5.55 272 0 Normal
05/07/2026 03 PM PDT 5.56 275 + Normal
05/07/2026 04 PM PDT 5.56 275 0 Normal
05/07/2026 05 PM PDT 5.56 275 0 Normal
05/07/2026 06 PM PDT 5.56 275 0 Normal
05/07/2026 07 PM PDT 5.55 272 - Normal
05/07/2026 08 PM PDT 5.55 272 0 Normal
05/07/2026 09 PM PDT 5.55 272 0 Normal
05/07/2026 10 PM PDT 5.55 272 0 Normal
05/07/2026 11 PM PDT 5.55 272 0 Normal
05/08/2026 12 AM PDT 5.54 270 - Normal
05/08/2026 01 AM PDT 5.54 270 0 Normal
05/08/2026 02 AM PDT 5.54 270 0 Normal
05/08/2026 03 AM PDT 5.53 267 - Normal
05/08/2026 04 AM PDT 5.53 267 0 Normal
05/08/2026 05 AM PDT 5.52 264 - Normal
05/08/2026 06 AM PDT 5.51 262 - Normal
05/08/2026 07 AM PDT 5.51 262 0 Normal
05/08/2026 08 AM PDT 5.51 262 0 Normal
#
# FORECAST
#
# Date & Time (Local) Stage (Feet) Flow (cfs) Trend Forecast Status
# ---------------------------------------------------------------------------------
05/08/2026 09 AM PDT 5.51 262 Normal
05/08/2026 10 AM PDT 5.51 262 0 Normal
05/08/2026 11 AM PDT 5.50 259 - Normal
05/08/2026 12 PM PDT 5.50 259 0 Normal
05/08/2026 01 PM PDT 5.50 259 0 Normal
05/08/2026 02 PM PDT 5.50 259 0 Normal
05/08/2026 03 PM PDT 5.50 259 0 Normal
05/08/2026 04 PM PDT 5.50 259 0 Normal
05/08/2026 05 PM PDT 5.50 259 0 Normal
05/08/2026 06 PM PDT 5.50 259 0 Normal
05/08/2026 07 PM PDT 5.50 259 0 Normal
05/08/2026 08 PM PDT 5.50 259 0 Normal
05/08/2026 09 PM PDT 5.50 259 0 Normal
05/08/2026 10 PM PDT 5.50 259 0 Normal
05/08/2026 11 PM PDT 5.50 259 0 Normal
05/09/2026 12 AM PDT 5.50 259 0 Normal
05/09/2026 01 AM PDT 5.50 259 0 Normal
05/09/2026 02 AM PDT 5.50 259 0 Normal
05/09/2026 03 AM PDT 5.50 259 0 Normal
05/09/2026 04 AM PDT 5.50 259 0 Normal
05/09/2026 05 AM PDT 5.50 259 0 Normal
05/09/2026 06 AM PDT 5.50 259 0 Normal
05/09/2026 07 AM PDT 5.49 257 - Normal
05/09/2026 08 AM PDT 5.49 257 0 Normal
05/09/2026 09 AM PDT 5.49 257 0 Normal
05/09/2026 10 AM PDT 5.49 257 0 Normal
05/09/2026 11 AM PDT 5.49 257 0 Normal
05/09/2026 12 PM PDT 5.49 257 0 Normal
05/09/2026 01 PM PDT 5.49 257 0 Normal
05/09/2026 02 PM PDT 5.49 257 0 Normal
05/09/2026 03 PM PDT 5.49 257 0 Normal
05/09/2026 04 PM PDT 5.48 254 - Normal
05/09/2026 05 PM PDT 5.48 254 0 Normal
05/09/2026 06 PM PDT 5.48 254 0 Normal
05/09/2026 07 PM PDT 5.49 257 + Normal
05/09/2026 08 PM PDT 5.49 257 0 Normal
05/09/2026 09 PM PDT 5.49 257 0 Normal
05/09/2026 10 PM PDT 5.49 257 0 Normal
05/09/2026 11 PM PDT 5.49 257 0 Normal
05/10/2026 12 AM PDT 5.49 257 0 Normal
05/10/2026 01 AM PDT 5.49 257 0 Normal
05/10/2026 02 AM PDT 5.48 254 - Normal
05/10/2026 03 AM PDT 5.48 254 0 Normal
05/10/2026 04 AM PDT 5.48 254 0 Normal
05/10/2026 05 AM PDT 5.48 254 0 Normal
05/10/2026 06 AM PDT 5.48 254 0 Normal
05/10/2026 07 AM PDT 5.48 254 0 Normal
05/10/2026 08 AM PDT 5.48 254 0 Normal
05/10/2026 09 AM PDT 5.48 254 0 Normal
05/10/2026 10 AM PDT 5.48 254 0 Normal
05/10/2026 11 AM PDT 5.47 252 - Normal
05/10/2026 12 PM PDT 5.47 252 0 Normal
05/10/2026 01 PM PDT 5.47 252 0 Normal
05/10/2026 02 PM PDT 5.47 252 0 Normal
05/10/2026 03 PM PDT 5.47 252 0 Normal
05/10/2026 04 PM PDT 5.47 252 0 Normal
05/10/2026 05 PM PDT 5.47 252 0 Normal
05/10/2026 06 PM PDT 5.47 252 0 Normal
05/10/2026 07 PM PDT 5.47 252 0 Normal
05/10/2026 08 PM PDT 5.47 252 0 Normal
05/10/2026 09 PM PDT 5.47 252 0 Normal
05/10/2026 10 PM PDT 5.47 252 0 Normal
05/10/2026 11 PM PDT 5.47 252 0 Normal
05/11/2026 12 AM PDT 5.47 252 0 Normal
05/11/2026 01 AM PDT 5.47 252 0 Normal
05/11/2026 02 AM PDT 5.47 252 0 Normal
05/11/2026 03 AM PDT 5.47 252 0 Normal
05/11/2026 04 AM PDT 5.47 252 0 Normal
05/11/2026 05 AM PDT 5.47 252 0 Normal
05/11/2026 06 AM PDT 5.47 252 0 Normal
05/11/2026 07 AM PDT 5.47 252 0 Normal
05/11/2026 08 AM PDT 5.46 249 - Normal
05/11/2026 09 AM PDT 5.46 249 0 Normal
05/11/2026 10 AM PDT 5.46 249 0 Normal
05/11/2026 11 AM PDT 5.46 249 0 Normal
05/11/2026 12 PM PDT 5.46 249 0 Normal
05/11/2026 01 PM PDT 5.46 249 0 Normal
05/11/2026 02 PM PDT 5.46 249 0 Normal
05/11/2026 03 PM PDT 5.46 249 0 Normal
05/11/2026 04 PM PDT 5.46 249 0 Normal
05/11/2026 05 PM PDT 5.46 249 0 Normal
05/11/2026 06 PM PDT 5.46 249 0 Normal
05/11/2026 07 PM PDT 5.46 249 0 Normal
05/11/2026 08 PM PDT 5.46 249 0 Normal
05/11/2026 09 PM PDT 5.46 249 0 Normal
05/11/2026 10 PM PDT 5.46 249 0 Normal
05/11/2026 11 PM PDT 5.46 249 0 Normal
05/12/2026 12 AM PDT 5.46 249 0 Normal
05/12/2026 01 AM PDT 5.46 249 0 Normal
05/12/2026 02 AM PDT 5.46 249 0 Normal
05/12/2026 03 AM PDT 5.46 249 0 Normal
05/12/2026 04 AM PDT 5.46 249 0 Normal
05/12/2026 05 AM PDT 5.46 249 0 Normal
05/12/2026 06 AM PDT 5.46 249 0 Normal
05/12/2026 07 AM PDT 5.45 247 - Normal
05/12/2026 08 AM PDT 5.45 247 0 Normal
05/12/2026 09 AM PDT 5.45 247 0 Normal
05/12/2026 10 AM PDT 5.45 247 0 Normal
05/12/2026 11 AM PDT 5.45 247 0 Normal
05/12/2026 12 PM PDT 5.45 247 0 Normal
05/12/2026 01 PM PDT 5.45 247 0 Normal
05/12/2026 02 PM PDT 5.45 247 0 Normal
05/12/2026 03 PM PDT 5.45 247 0 Normal
05/12/2026 04 PM PDT 5.45 247 0 Normal
05/12/2026 05 PM PDT 5.45 247 0 Normal
05/12/2026 06 PM PDT 5.45 247 0 Normal
05/12/2026 07 PM PDT 5.45 247 0 Normal
05/12/2026 08 PM PDT 5.45 247 0 Normal
05/12/2026 09 PM PDT 5.45 247 0 Normal
05/12/2026 10 PM PDT 5.45 247 0 Normal
05/12/2026 11 PM PDT 5.45 247 0 Normal
05/13/2026 12 AM PDT 5.45 247 0 Normal
05/13/2026 01 AM PDT 5.45 247 0 Normal
05/13/2026 02 AM PDT 5.45 247 0 Normal
05/13/2026 03 AM PDT 5.45 247 0 Normal
05/13/2026 04 AM PDT 5.45 247 0 Normal
05/13/2026 05 AM PDT 5.45 247 0 Normal
#
# NOTE 1: Stages are rounded to the nearest hundredth (.01) of a foot.
# NOTE 2: Flows are rounded to the nearest (1) cfs.
# NOTE 3: Trends are determined using hourly change in unrounded stage and flow.
# NOTE 4: Maximum Values are determined using unrounded stage and flow.
|